Terminal Aerodrome Forecast
Issued by NWS

Home | Current Version | Previous Version | Text Only | Print | Product List | Glossary On
Versions: 1 2 3 4 5 6 7 8 9 10 11 12 13 14 15 16 17 18 19 20 21 22 23 24 25 26 27 28 29 30 31 32 33 34 35 36
000
FTUS45 KCYS 231140
TAFRWL
TAF
KRWL 231140Z 2312/2412 VRB06KT P6SM BKN100
     FM231800 28010KT P6SM VCTS BKN050CB BKN100
     FM240100 01011KT P6SM VCSH OVC050
     FM240600 34015KT 5SM -RA BR BKN015 OVC025=

USA.gov is the U.S. government's official web portal to all federal, state and local government web resources and services.